sensor_id;sensor_type;location;lat;lon;timestamp;temperature;humidity
67196;DHT22;54122;53.538;49.366;2023-04-01T00:00:59;5.10;80.50
67196;DHT22;54122;53.538;49.366;2023-04-01T00:03:26;5.10;80.40
67196;DHT22;54122;53.538;49.366;2023-04-01T00:05:57;5.10;80.40
67196;DHT22;54122;53.538;49.366;2023-04-01T00:08:25;5.20;80.30
67196;DHT22;54122;53.538;49.366;2023-04-01T00:10:52;5.10;80.20
67196;DHT22;54122;53.538;49.366;2023-04-01T00:13:20;5.20;80.30
67196;DHT22;54122;53.538;49.366;2023-04-01T00:15:47;5.20;80.30
67196;DHT22;54122;53.538;49.366;2023-04-01T00:18:13;5.30;80.10
67196;DHT22;54122;53.538;49.366;2023-04-01T00:20:44;5.30;79.90
67196;DHT22;54122;53.538;49.366;2023-04-01T00:23:11;5.40;79.80
67196;DHT22;54122;53.538;49.366;2023-04-01T00:25:38;5.30;79.60
67196;DHT22;54122;53.538;49.366;2023-04-01T00:28:04;5.30;79.80
67196;DHT22;54122;53.538;49.366;2023-04-01T00:30:31;5.30;79.90
67196;DHT22;54122;53.538;49.366;2023-04-01T00:32:57;5.30;80.00
67196;DHT22;54122;53.538;49.366;2023-04-01T00:35:24;5.20;80.10
67196;DHT22;54122;53.538;49.366;2023-04-01T00:37:50;5.20;80.10
67196;DHT22;54122;53.538;49.366;2023-04-01T00:40:38;5.20;80.30
67196;DHT22;54122;53.538;49.366;2023-04-01T00:43:18;5.10;80.40
67196;DHT22;54122;53.538;49.366;2023-04-01T00:45:48;5.10;80.70
67196;DHT22;54122;53.538;49.366;2023-04-01T00:48:17;5.10;80.90
67196;DHT22;54122;53.538;49.366;2023-04-01T00:50:49;5.00;81.00
67196;DHT22;54122;53.538;49.366;2023-04-01T00:53:17;5.00;81.30
67196;DHT22;54122;53.538;49.366;2023-04-01T00:55:58;5.00;81.60
67196;DHT22;54122;53.538;49.366;2023-04-01T00:58:28;4.90;81.80
67196;DHT22;54122;53.538;49.366;2023-04-01T01:00:58;4.90;82.00
67196;DHT22;54122;53.538;49.366;2023-04-01T01:03:26;4.90;82.10
67196;DHT22;54122;53.538;49.366;2023-04-01T01:06:10;4.80;82.10
67196;DHT22;54122;53.538;49.366;2023-04-01T01:11:43;4.80;82.50
67196;DHT22;54122;53.538;49.366;2023-04-01T01:16:53;4.70;82.50
67196;DHT22;54122;53.538;49.366;2023-04-01T01:22:13;4.70;83.00
67196;DHT22;54122;53.538;49.366;2023-04-01T01:25:18;4.60;83.00
67196;DHT22;54122;53.538;49.366;2023-04-01T01:31:40;4.50;83.20
67196;DHT22;54122;53.538;49.366;2023-04-01T01:36:06;4.50;83.60
67196;DHT22;54122;53.538;49.366;2023-04-01T01:38:36;4.50;83.40
67196;DHT22;54122;53.538;49.366;2023-04-01T01:41:05;4.50;84.40
67196;DHT22;54122;53.538;49.366;2023-04-01T01:43:40;4.50;83.40
67196;DHT22;54122;53.538;49.366;2023-04-01T01:46:13;4.50;83.20
67196;DHT22;54122;53.538;49.366;2023-04-01T01:48:42;4.50;83.20
67196;DHT22;54122;53.538;49.366;2023-04-01T01:51:10;4.50;83.10
67196;DHT22;54122;53.538;49.366;2023-04-01T01:53:36;4.50;83.00
67196;DHT22;54122;53.538;49.366;2023-04-01T01:56:03;4.50;83.40
67196;DHT22;54122;53.538;49.366;2023-04-01T01:58:45;4.50;82.90
67196;DHT22;54122;53.538;49.366;2023-04-01T02:01:13;4.50;82.90
67196;DHT22;54122;53.538;49.366;2023-04-01T02:03:41;4.50;83.00
67196;DHT22;54122;53.538;49.366;2023-04-01T02:06:10;4.50;84.00
67196;DHT22;54122;53.538;49.366;2023-04-01T02:08:47;4.50;82.90
67196;DHT22;54122;53.538;49.366;2023-04-01T02:11:17;4.50;83.00
67196;DHT22;54122;53.538;49.366;2023-04-01T02:13:58;4.40;82.90
67196;DHT22;54122;53.538;49.366;2023-04-01T02:16:43;4.40;83.00
67196;DHT22;54122;53.538;49.366;2023-04-01T02:19:10;4.40;82.90
67196;DHT22;54122;53.538;49.366;2023-04-01T02:21:39;4.40;83.00
67196;DHT22;54122;53.538;49.366;2023-04-01T02:24:10;4.40;83.00
67196;DHT22;54122;53.538;49.366;2023-04-01T02:26:38;4.40;83.10
67196;DHT22;54122;53.538;49.366;2023-04-01T02:29:06;4.40;83.10
67196;DHT22;54122;53.538;49.366;2023-04-01T02:31:33;4.40;83.20
67196;DHT22;54122;53.538;49.366;2023-04-01T02:34:00;4.40;83.30
67196;DHT22;54122;53.538;49.366;2023-04-01T02:36:28;4.40;83.30
67196;DHT22;54122;53.538;49.366;2023-04-01T02:38:56;4.40;83.50
67196;DHT22;54122;53.538;49.366;2023-04-01T02:41:25;4.40;83.60
67196;DHT22;54122;53.538;49.366;2023-04-01T02:43:51;4.40;84.70
67196;DHT22;54122;53.538;49.366;2023-04-01T02:46:17;4.50;83.60
67196;DHT22;54122;53.538;49.366;2023-04-01T02:48:43;4.50;83.50
67196;DHT22;54122;53.538;49.366;2023-04-01T02:51:10;4.40;83.50
67196;DHT22;54122;53.538;49.366;2023-04-01T02:53:37;4.50;83.40
67196;DHT22;54122;53.538;49.366;2023-04-01T02:56:03;4.50;83.30
67196;DHT22;54122;53.538;49.366;2023-04-01T02:58:30;4.50;83.20
67196;DHT22;54122;53.538;49.366;2023-04-01T03:00:56;4.60;83.10
67196;DHT22;54122;53.538;49.366;2023-04-01T03:03:23;4.60;83.10
67196;DHT22;54122;53.538;49.366;2023-04-01T03:05:49;4.70;82.90
67196;DHT22;54122;53.538;49.366;2023-04-01T03:08:15;4.80;82.50
67196;DHT22;54122;53.538;49.366;2023-04-01T03:10:42;4.90;82.50
67196;DHT22;54122;53.538;49.366;2023-04-01T03:13:08;5.00;82.20
67196;DHT22;54122;53.538;49.366;2023-04-01T03:15:34;5.30;82.00
67196;DHT22;54122;53.538;49.366;2023-04-01T03:18:01;5.50;80.50
67196;DHT22;54122;53.538;49.366;2023-04-01T03:20:27;5.70;79.70
67196;DHT22;54122;53.538;49.366;2023-04-01T03:22:54;5.80;78.70
67196;DHT22;54122;53.538;49.366;2023-04-01T03:25:21;5.80;78.30
67196;DHT22;54122;53.538;49.366;2023-04-01T03:27:47;5.80;78.10
67196;DHT22;54122;53.538;49.366;2023-04-01T03:30:13;5.80;78.00
67196;DHT22;54122;53.538;49.366;2023-04-01T03:32:40;5.80;77.80
67196;DHT22;54122;53.538;49.366;2023-04-01T03:35:07;5.80;77.40
67196;DHT22;54122;53.538;49.366;2023-04-01T03:37:35;5.90;77.20
67196;DHT22;54122;53.538;49.366;2023-04-01T03:40:02;6.00;77.30
67196;DHT22;54122;53.538;49.366;2023-04-01T03:42:30;6.60;76.80
67196;DHT22;54122;53.538;49.366;2023-04-01T03:44:57;7.20;74.60
67196;DHT22;54122;53.538;49.366;2023-04-01T03:47:23;7.50;72.10
67196;DHT22;54122;53.538;49.366;2023-04-01T03:49:50;7.40;70.90
67196;DHT22;54122;53.538;49.366;2023-04-01T03:52:16;7.20;70.10
67196;DHT22;54122;53.538;49.366;2023-04-01T03:54:43;7.10;70.10
67196;DHT22;54122;53.538;49.366;2023-04-01T03:57:09;7.00;69.70
67196;DHT22;54122;53.538;49.366;2023-04-01T03:59:36;7.00;69.90
67196;DHT22;54122;53.538;49.366;2023-04-01T04:02:03;7.00;69.40
67196;DHT22;54122;53.538;49.366;2023-04-01T04:04:29;7.00;69.00
67196;DHT22;54122;53.538;49.366;2023-04-01T04:06:56;7.00;69.20
67196;DHT22;54122;53.538;49.366;2023-04-01T04:09:22;7.10;69.00
67196;DHT22;54122;53.538;49.366;2023-04-01T04:11:49;7.30;68.80
67196;DHT22;54122;53.538;49.366;2023-04-01T04:14:16;7.80;68.50
67196;DHT22;54122;53.538;49.366;2023-04-01T04:16:42;8.50;66.20
67196;DHT22;54122;53.538;49.366;2023-04-01T04:19:09;8.90;64.50
67196;DHT22;54122;53.538;49.366;2023-04-01T04:21:35;9.40;63.10
67196;DHT22;54122;53.538;49.366;2023-04-01T04:24:02;10.00;61.70
67196;DHT22;54122;53.538;49.366;2023-04-01T04:26:29;10.20;59.10
67196;DHT22;54122;53.538;49.366;2023-04-01T04:28:55;10.10;58.80
67196;DHT22;54122;53.538;49.366;2023-04-01T04:31:23;10.10;58.30
67196;DHT22;54122;53.538;49.366;2023-04-01T04:33:51;10.10;57.90
67196;DHT22;54122;53.538;49.366;2023-04-01T04:36:20;10.20;57.70
67196;DHT22;54122;53.538;49.366;2023-04-01T04:38:47;10.40;57.60
67196;DHT22;54122;53.538;49.366;2023-04-01T04:41:15;10.70;56.60
67196;DHT22;54122;53.538;49.366;2023-04-01T04:43:50;11.20;55.00
67196;DHT22;54122;53.538;49.366;2023-04-01T04:46:17;11.60;53.40
67196;DHT22;54122;53.538;49.366;2023-04-01T04:48:43;12.20;50.10
67196;DHT22;54122;53.538;49.366;2023-04-01T04:51:16;12.50;48.10
67196;DHT22;54122;53.538;49.366;2023-04-01T04:53:44;12.80;46.20
67196;DHT22;54122;53.538;49.366;2023-04-01T04:56:11;13.00;45.20
67196;DHT22;54122;53.538;49.366;2023-04-01T04:58:38;13.20;44.40
67196;DHT22;54122;53.538;49.366;2023-04-01T05:01:09;13.70;43.60
67196;DHT22;54122;53.538;49.366;2023-04-01T05:03:37;14.00;43.40
67196;DHT22;54122;53.538;49.366;2023-04-01T05:06:04;14.10;41.40
67196;DHT22;54122;53.538;49.366;2023-04-01T05:08:31;13.90;41.60
67196;DHT22;54122;53.538;49.366;2023-04-01T05:10:59;13.90;41.80
67196;DHT22;54122;53.538;49.366;2023-04-01T05:13:26;13.90;41.20
67196;DHT22;54122;53.538;49.366;2023-04-01T05:15:52;13.90;41.60
67196;DHT22;54122;53.538;49.366;2023-04-01T05:18:19;14.10;41.60
67196;DHT22;54122;53.538;49.366;2023-04-01T05:20:50;14.00;40.40
67196;DHT22;54122;53.538;49.366;2023-04-01T05:23:17;13.80;40.60
67196;DHT22;54122;53.538;49.366;2023-04-01T05:25:44;13.80;40.20
67196;DHT22;54122;53.538;49.366;2023-04-01T05:28:11;13.90;39.80
67196;DHT22;54122;53.538;49.366;2023-04-01T05:30:40;14.00;39.60
67196;DHT22;54122;53.538;49.366;2023-04-01T05:33:09;14.50;38.20
67196;DHT22;54122;53.538;49.366;2023-04-01T05:35:36;14.70;37.70
67196;DHT22;54122;53.538;49.366;2023-04-01T05:38:03;15.10;36.90
67196;DHT22;54122;53.538;49.366;2023-04-01T05:40:29;15.80;36.00
67196;DHT22;54122;53.538;49.366;2023-04-01T05:42:56;16.20;34.30
67196;DHT22;54122;53.538;49.366;2023-04-01T05:45:23;16.40;33.60
67196;DHT22;54122;53.538;49.366;2023-04-01T05:47:49;16.70;33.80
67196;DHT22;54122;53.538;49.366;2023-04-01T05:50:16;17.20;32.60
67196;DHT22;54122;53.538;49.366;2023-04-01T05:52:42;17.30;31.80
67196;DHT22;54122;53.538;49.366;2023-04-01T05:55:08;17.30;32.00
67196;DHT22;54122;53.538;49.366;2023-04-01T05:57:35;17.20;31.50
67196;DHT22;54122;53.538;49.366;2023-04-01T06:00:02;16.90;31.60
67196;DHT22;54122;53.538;49.366;2023-04-01T06:02:28;16.40;32.50
67196;DHT22;54122;53.538;49.366;2023-04-01T06:05:03;16.30;33.60
67196;DHT22;54122;53.538;49.366;2023-04-01T06:07:36;16.70;33.10
67196;DHT22;54122;53.538;49.366;2023-04-01T06:10:13;17.30;32.40
67196;DHT22;54122;53.538;49.366;2023-04-01T06:23:40;16.80;31.90
67196;DHT22;54122;53.538;49.366;2023-04-01T06:32:09;16.10;33.10
67196;DHT22;54122;53.538;49.366;2023-04-01T06:43:52;17.20;31.30
67196;DHT22;54122;53.538;49.366;2023-04-01T06:51:52;16.70;31.00
67196;DHT22;54122;53.538;49.366;2023-04-01T06:54:32;16.70;31.60
67196;DHT22;54122;53.538;49.366;2023-04-01T06:59:51;17.20;31.40
67196;DHT22;54122;53.538;49.366;2023-04-01T07:02:38;17.20;30.40
67196;DHT22;54122;53.538;49.366;2023-04-01T07:05:05;17.30;31.00
67196;DHT22;54122;53.538;49.366;2023-04-01T07:07:43;17.40;30.50
67196;DHT22;54122;53.538;49.366;2023-04-01T07:13:29;17.00;31.60
67196;DHT22;54122;53.538;49.366;2023-04-01T07:18:52;18.00;30.10
67196;DHT22;54122;53.538;49.366;2023-04-01T07:21:40;17.80;29.40
67196;DHT22;54122;53.538;49.366;2023-04-01T07:27:16;16.80;30.70
67196;DHT22;54122;53.538;49.366;2023-04-01T07:29:42;16.70;31.80
67196;DHT22;54122;53.538;49.366;2023-04-01T07:32:31;16.80;31.70
67196;DHT22;54122;53.538;49.366;2023-04-01T07:37:55;17.20;31.80
67196;DHT22;54122;53.538;49.366;2023-04-01T07:49:16;17.90;30.50
67196;DHT22;54122;53.538;49.366;2023-04-01T07:54:49;17.80;30.80
67196;DHT22;54122;53.538;49.366;2023-04-01T07:57:29;18.00;30.30
67196;DHT22;54122;53.538;49.366;2023-04-01T08:03:18;17.70;30.10
67196;DHT22;54122;53.538;49.366;2023-04-01T08:08:24;18.20;29.90
67196;DHT22;54122;53.538;49.366;2023-04-01T08:19:04;18.00;29.90
67196;DHT22;54122;53.538;49.366;2023-04-01T08:21:42;17.70;30.40
67196;DHT22;54122;53.538;49.366;2023-04-01T08:24:43;17.50;30.90
67196;DHT22;54122;53.538;49.366;2023-04-01T08:27:24;17.70;30.20
67196;DHT22;54122;53.538;49.366;2023-04-01T08:30:03;17.80;30.00
67196;DHT22;54122;53.538;49.366;2023-04-01T08:32:39;18.20;29.90
67196;DHT22;54122;53.538;49.366;2023-04-01T08:37:54;18.30;29.20
67196;DHT22;54122;53.538;49.366;2023-04-01T08:43:42;18.00;28.80
67196;DHT22;54122;53.538;49.366;2023-04-01T08:46:30;17.70;28.90
67196;DHT22;54122;53.538;49.366;2023-04-01T09:11:21;17.50;29.60
67196;DHT22;54122;53.538;49.366;2023-04-01T09:22:25;16.80;30.40
67196;DHT22;54122;53.538;49.366;2023-04-01T09:39:11;16.50;31.30
67196;DHT22;54122;53.538;49.366;2023-04-01T09:44:34;16.00;32.40
67196;DHT22;54122;53.538;49.366;2023-04-01T09:47:28;15.90;32.80
67196;DHT22;54122;53.538;49.366;2023-04-01T10:17:58;15.00;34.60
67196;DHT22;54122;53.538;49.366;2023-04-01T10:24:02;14.90;35.00
67196;DHT22;54122;53.538;49.366;2023-04-01T11:15:35;15.40;34.10
67196;DHT22;54122;53.538;49.366;2023-04-01T11:29:22;15.20;33.90
67196;DHT22;54122;53.538;49.366;2023-04-01T12:02:18;14.30;36.70
67196;DHT22;54122;53.538;49.366;2023-04-01T12:13:13;14.70;36.20
67196;DHT22;54122;53.538;49.366;2023-04-01T12:18:27;14.60;36.40
67196;DHT22;54122;53.538;49.366;2023-04-01T12:23:54;14.20;37.00
67196;DHT22;54122;53.538;49.366;2023-04-01T12:35:39;13.90;38.40
67196;DHT22;54122;53.538;49.366;2023-04-01T12:38:36;13.80;38.70
67196;DHT22;54122;53.538;49.366;2023-04-01T13:06:24;13.10;40.70
67196;DHT22;54122;53.538;49.366;2023-04-01T13:09:03;13.10;40.80
67196;DHT22;54122;53.538;49.366;2023-04-01T13:20:02;12.90;42.30
67196;DHT22;54122;53.538;49.366;2023-04-01T13:22:48;12.80;41.20
67196;DHT22;54122;53.538;49.366;2023-04-01T13:25:39;12.80;41.60
67196;DHT22;54122;53.538;49.366;2023-04-01T13:31:19;12.60;41.80
67196;DHT22;54122;53.538;49.366;2023-04-01T13:33:58;12.50;41.90
67196;DHT22;54122;53.538;49.366;2023-04-01T13:36:37;12.50;42.20
67196;DHT22;54122;53.538;49.366;2023-04-01T13:39:23;12.40;42.30
67196;DHT22;54122;53.538;49.366;2023-04-01T13:42:23;12.40;42.30
67196;DHT22;54122;53.538;49.366;2023-04-01T13:45:19;12.30;42.30
67196;DHT22;54122;53.538;49.366;2023-04-01T13:51:18;12.20;42.80
67196;DHT22;54122;53.538;49.366;2023-04-01T14:13:17;11.70;44.00
67196;DHT22;54122;53.538;49.366;2023-04-01T14:32:24;11.30;44.90
67196;DHT22;54122;53.538;49.366;2023-04-01T14:35:23;11.20;45.10
67196;DHT22;54122;53.538;49.366;2023-04-01T14:46:17;10.90;45.80
67196;DHT22;54122;53.538;49.366;2023-04-01T14:48:53;10.80;46.00
67196;DHT22;54122;53.538;49.366;2023-04-01T14:54:08;10.60;46.40
67196;DHT22;54122;53.538;49.366;2023-04-01T14:56:42;10.60;46.60
67196;DHT22;54122;53.538;49.366;2023-04-01T15:09:54;10.10;48.30
67196;DHT22;54122;53.538;49.366;2023-04-01T15:26:28;9.70;49.20
67196;DHT22;54122;53.538;49.366;2023-04-01T15:31:35;9.60;50.10
67196;DHT22;54122;53.538;49.366;2023-04-01T15:40:11;9.20;51.10
67196;DHT22;54122;53.538;49.366;2023-04-01T16:00:05;8.40;53.80
67196;DHT22;54122;53.538;49.366;2023-04-01T16:12:07;8.00;55.20
67196;DHT22;54122;53.538;49.366;2023-04-01T16:21:02;7.90;55.90
67196;DHT22;54122;53.538;49.366;2023-04-01T16:26:13;7.70;56.70
67196;DHT22;54122;53.538;49.366;2023-04-01T16:28:54;7.70;57.20
67196;DHT22;54122;53.538;49.366;2023-04-01T16:31:51;7.70;57.20
67196;DHT22;54122;53.538;49.366;2023-04-01T16:37:29;7.60;57.30
67196;DHT22;54122;53.538;49.366;2023-04-01T16:42:58;7.50;57.90
67196;DHT22;54122;53.538;49.366;2023-04-01T16:48:41;7.40;58.30
67196;DHT22;54122;53.538;49.366;2023-04-01T16:51:15;7.50;58.40
67196;DHT22;54122;53.538;49.366;2023-04-01T16:54:00;7.50;58.30
67196;DHT22;54122;53.538;49.366;2023-04-01T16:56:45;7.50;58.30
67196;DHT22;54122;53.538;49.366;2023-04-01T16:59:29;7.40;59.50
67196;DHT22;54122;53.538;49.366;2023-04-01T17:04:57;7.20;59.00
67196;DHT22;54122;53.538;49.366;2023-04-01T17:15:41;7.10;59.70
67196;DHT22;54122;53.538;49.366;2023-04-01T17:18:24;7.10;59.60
67196;DHT22;54122;53.538;49.366;2023-04-01T17:33:06;6.90;60.40
67196;DHT22;54122;53.538;49.366;2023-04-01T17:52:34;7.20;60.90
67196;DHT22;54122;53.538;49.366;2023-04-01T17:58:28;7.20;60.70
67196;DHT22;54122;53.538;49.366;2023-04-01T18:12:22;7.20;61.80
67196;DHT22;54122;53.538;49.366;2023-04-01T18:20:46;7.10;62.50
67196;DHT22;54122;53.538;49.366;2023-04-01T18:23:30;7.30;62.90
67196;DHT22;54122;53.538;49.366;2023-04-01T18:26:35;7.50;62.50
67196;DHT22;54122;53.538;49.366;2023-04-01T18:37:44;7.30;62.70
67196;DHT22;54122;53.538;49.366;2023-04-01T18:46:12;7.70;62.40
67196;DHT22;54122;53.538;49.366;2023-04-01T18:49:40;7.70;62.20
67196;DHT22;54122;53.538;49.366;2023-04-01T18:51:53;7.80;62.10
67196;DHT22;54122;53.538;49.366;2023-04-01T18:54:30;7.80;62.00
67196;DHT22;54122;53.538;49.366;2023-04-01T19:00:40;7.90;61.70
67196;DHT22;54122;53.538;49.366;2023-04-01T19:03:23;7.90;61.70
67196;DHT22;54122;53.538;49.366;2023-04-01T19:05:53;7.90;61.90
67196;DHT22;54122;53.538;49.366;2023-04-01T19:19:45;7.60;62.80
67196;DHT22;54122;53.538;49.366;2023-04-01T19:22:38;7.50;63.00
67196;DHT22;54122;53.538;49.366;2023-04-01T19:25:34;7.50;63.50
67196;DHT22;54122;53.538;49.366;2023-04-01T19:30:51;7.40;64.00
67196;DHT22;54122;53.538;49.366;2023-04-01T19:36:13;7.20;64.50
67196;DHT22;54122;53.538;49.366;2023-04-01T19:41:51;7.10;64.90
67196;DHT22;54122;53.538;49.366;2023-04-01T19:50:04;7.10;65.30
67196;DHT22;54122;53.538;49.366;2023-04-01T19:52:40;7.20;65.20
67196;DHT22;54122;53.538;49.366;2023-04-01T19:55:31;7.20;65.30
67196;DHT22;54122;53.538;49.366;2023-04-01T20:00:36;7.30;65.30
67196;DHT22;54122;53.538;49.366;2023-04-01T20:03:05;7.30;65.30
67196;DHT22;54122;53.538;49.366;2023-04-01T20:08:16;7.20;65.20
67196;DHT22;54122;53.538;49.366;2023-04-01T20:15:55;7.30;65.10
67196;DHT22;54122;53.538;49.366;2023-04-01T20:18:52;7.30;65.20
67196;DHT22;54122;53.538;49.366;2023-04-01T20:21:37;7.30;65.00
67196;DHT22;54122;53.538;49.366;2023-04-01T20:26:47;7.50;64.90
67196;DHT22;54122;53.538;49.366;2023-04-01T20:35:07;7.50;64.60
67196;DHT22;54122;53.538;49.366;2023-04-01T20:37:57;7.40;64.70
67196;DHT22;54122;53.538;49.366;2023-04-01T20:46:14;7.40;64.70
67196;DHT22;54122;53.538;49.366;2023-04-01T20:49:07;7.40;64.40
67196;DHT22;54122;53.538;49.366;2023-04-01T20:51:52;7.50;64.50
67196;DHT22;54122;53.538;49.366;2023-04-01T20:54:26;7.40;64.40
67196;DHT22;54122;53.538;49.366;2023-04-01T20:57:13;7.40;64.50
67196;DHT22;54122;53.538;49.366;2023-04-01T20:59:57;7.40;64.80
67196;DHT22;54122;53.538;49.366;2023-04-01T21:05:30;7.20;65.60
67196;DHT22;54122;53.538;49.366;2023-04-01T21:19:28;7.00;65.60
67196;DHT22;54122;53.538;49.366;2023-04-01T21:24:48;7.10;65.10
67196;DHT22;54122;53.538;49.366;2023-04-01T21:55:39;7.30;63.30
67196;DHT22;54122;53.538;49.366;2023-04-01T22:01:49;7.30;63.20
67196;DHT22;54122;53.538;49.366;2023-04-01T22:17:58;7.30;62.60
67196;DHT22;54122;53.538;49.366;2023-04-01T22:21:12;7.40;62.30
67196;DHT22;54122;53.538;49.366;2023-04-01T22:23:56;7.40;62.10
67196;DHT22;54122;53.538;49.366;2023-04-01T22:26:32;7.40;62.00
67196;DHT22;54122;53.538;49.366;2023-04-01T22:39:53;7.50;61.10
67196;DHT22;54122;53.538;49.366;2023-04-01T22:47:34;7.60;61.20
67196;DHT22;54122;53.538;49.366;2023-04-01T22:50:18;7.60;61.20
67196;DHT22;54122;53.538;49.366;2023-04-01T22:52:49;7.60;60.90
67196;DHT22;54122;53.538;49.366;2023-04-01T22:55:22;7.60;60.90
67196;DHT22;54122;53.538;49.366;2023-04-01T23:03:30;7.60;61.10
67196;DHT22;54122;53.538;49.366;2023-04-01T23:05:59;7.60;61.00
67196;DHT22;54122;53.538;49.366;2023-04-01T23:08:56;7.50;61.00
67196;DHT22;54122;53.538;49.366;2023-04-01T23:11:37;7.50;61.00
67196;DHT22;54122;53.538;49.366;2023-04-01T23:22:46;7.50;61.00
67196;DHT22;54122;53.538;49.366;2023-04-01T23:35:51;7.50;61.40
67196;DHT22;54122;53.538;49.366;2023-04-01T23:38:20;7.40;61.30
67196;DHT22;54122;53.538;49.366;2023-04-01T23:40:49;7.40;61.40
67196;DHT22;54122;53.538;49.366;2023-04-01T23:45:49;7.40;61.60
67196;DHT22;54122;53.538;49.366;2023-04-01T23:48:16;7.40;61.80
67196;DHT22;54122;53.538;49.366;2023-04-01T23:50:45;7.50;61.40
67196;DHT22;54122;53.538;49.366;2023-04-01T23:53:25;7.50;61.10
67196;DHT22;54122;53.538;49.366;2023-04-01T23:55:52;7.60;62.00
67196;DHT22;54122;53.538;49.366;2023-04-01T23:58:27;7.60;60.80
